Suffield, Ohio
Current Conditions -  °F | °C
As of 6:54 PM on Monday 20 Oct 2014 (Local Time) from KAKR Reporting Station
Light Rain Light Rain  
Wind Chill: 53°   Ceiling: 3000
Heat Index: 53°   Visibility: 10mi
Dew Point: 48°   Wind: 8mph
Humidity: 83%   Direction: 200°SSW
Pressure: 29.84"   Gusts: NA
Location:  41.0385°N, 81.341°W
Report Text: KAKR 202254Z AUTO 20007KT 10SM -RA BKN030 BKN035 OVC055 12/09 A2984 RMK AO2 SLP106 P0002 T01170089
Loading
Personal Weather Stations






























Interactive Weather Map
Tropical Storm Tracking
New forecast layout! Learn more

10-Day Weather Forecast

Advertisements
Track Severe Weather on mobile